createdAt,value
2024-04-30T00:01:31.644Z,3.53
2024-04-30T00:03:58.915Z,3.45
2024-04-30T00:06:26.254Z,2.90
2024-04-30T00:08:54.167Z,3.28
2024-04-30T00:11:21.392Z,3.38
2024-04-30T00:13:48.398Z,3.20
2024-04-30T00:16:15.827Z,3.10
2024-04-30T00:18:44.062Z,3.35
2024-04-30T00:21:14.302Z,3.22
2024-04-30T00:23:41.476Z,3.25
2024-04-30T00:26:11.585Z,3.05
2024-04-30T00:28:39.051Z,2.90
2024-04-30T00:31:06.895Z,2.90
2024-04-30T00:33:34.134Z,2.65
2024-04-30T00:36:01.518Z,2.80
2024-04-30T00:38:30.778Z,2.80
2024-04-30T00:40:57.995Z,3.13
2024-04-30T00:43:25.060Z,2.80
2024-04-30T00:45:52.399Z,2.58
2024-04-30T00:48:26.572Z,2.65
2024-04-30T00:50:55.098Z,2.50
2024-04-30T00:53:22.910Z,2.97
2024-04-30T00:55:50.481Z,2.80
2024-04-30T00:58:17.690Z,2.78
2024-04-30T01:00:44.958Z,2.70
2024-04-30T01:03:12.261Z,2.75
2024-04-30T01:05:39.617Z,2.92
2024-04-30T01:08:07.139Z,2.85
2024-04-30T01:10:34.601Z,3.28
2024-04-30T01:13:06.689Z,3.33
2024-04-30T01:15:33.862Z,3.13
2024-04-30T01:18:00.963Z,3.28
2024-04-30T01:20:28.230Z,3.00
2024-04-30T01:22:55.377Z,3.00
2024-04-30T01:25:22.589Z,2.75
2024-04-30T01:27:49.790Z,2.90
2024-04-30T01:30:17.029Z,3.17
2024-04-30T01:32:44.504Z,3.13
2024-04-30T01:35:11.791Z,2.92
2024-04-30T01:37:39.079Z,2.60
2024-04-30T01:40:07.150Z,2.85
2024-04-30T01:42:34.473Z,3.03
2024-04-30T01:45:01.629Z,2.95
2024-04-30T01:47:28.940Z,2.90
2024-04-30T01:49:56.032Z,2.50
2024-04-30T01:52:23.264Z,2.83
2024-04-30T01:54:50.398Z,2.60
2024-04-30T01:57:17.660Z,2.30
2024-04-30T01:59:45.337Z,2.55
2024-04-30T02:02:12.832Z,2.60
2024-04-30T02:04:46.506Z,2.10
2024-04-30T02:07:17.399Z,2.40
2024-04-30T02:09:44.877Z,2.38
2024-04-30T02:12:12.100Z,2.50
2024-04-30T02:14:39.256Z,2.17
2024-04-30T02:17:06.576Z,2.65
2024-04-30T02:19:34.140Z,2.80
2024-04-30T02:22:03.926Z,2.50
2024-04-30T02:24:31.022Z,2.50
2024-04-30T02:26:58.207Z,2.40
2024-04-30T02:29:25.240Z,2.30
2024-04-30T02:32:10.908Z,2.88
2024-04-30T02:34:38.062Z,2.45
2024-04-30T02:37:05.508Z,2.70
2024-04-30T02:39:32.787Z,2.53
2024-04-30T02:42:00.138Z,2.80
2024-04-30T02:44:27.257Z,2.65
2024-04-30T02:46:54.878Z,2.83
2024-04-30T02:49:22.182Z,2.70
2024-04-30T02:51:49.565Z,2.70
2024-04-30T02:54:16.992Z,2.88
2024-04-30T02:56:44.278Z,2.40
2024-04-30T02:59:11.434Z,2.80
2024-04-30T03:01:38.520Z,2.40
2024-04-30T03:04:06.101Z,2.50
2024-04-30T03:06:33.461Z,2.55
2024-04-30T03:09:00.566Z,2.50
2024-04-30T03:11:27.667Z,2.55
2024-04-30T03:13:54.768Z,2.75
2024-04-30T03:16:21.944Z,2.83
2024-04-30T03:18:49.309Z,2.70
2024-04-30T03:21:16.556Z,3.00
2024-04-30T03:23:43.908Z,2.67
2024-04-30T03:26:10.993Z,2.80
2024-04-30T03:28:38.364Z,2.95
2024-04-30T03:31:11.646Z,2.85
2024-04-30T03:33:38.944Z,2.80
2024-04-30T03:36:06.596Z,2.92
2024-04-30T03:38:38.715Z,3.42
2024-04-30T03:41:11.788Z,2.78
2024-04-30T03:43:41.810Z,3.10
2024-04-30T03:46:15.185Z,2.72
2024-04-30T03:48:43.395Z,3.05
2024-04-30T03:51:10.814Z,3.22
2024-04-30T03:53:37.929Z,2.95
2024-04-30T03:56:05.658Z,3.03
2024-04-30T03:58:32.895Z,3.08
2024-04-30T04:01:00.243Z,3.00
2024-04-30T04:03:27.673Z,2.90
2024-04-30T04:05:54.933Z,3.25
2024-04-30T04:08:22.135Z,3.13
2024-04-30T04:11:07.906Z,2.90
2024-04-30T04:16:20.986Z,3.50
2024-04-30T04:18:48.222Z,2.88
2024-04-30T04:21:18.440Z,2.90
2024-04-30T04:23:49.133Z,2.88
2024-04-30T04:26:16.482Z,2.95
2024-04-30T04:28:43.730Z,2.70
2024-04-30T04:31:11.635Z,2.50
2024-04-30T04:33:38.950Z,2.67
2024-04-30T04:36:06.430Z,2.60
2024-04-30T04:38:33.445Z,2.60
2024-04-30T04:41:00.738Z,2.65
2024-04-30T04:43:27.792Z,2.88
2024-04-30T04:45:54.940Z,2.47
2024-04-30T04:48:22.096Z,2.28
2024-04-30T04:50:49.271Z,2.33
2024-04-30T04:53:16.699Z,2.25
2024-04-30T04:55:43.789Z,2.13
2024-04-30T04:58:10.954Z,2.30
2024-04-30T05:00:38.366Z,2.65
2024-04-30T05:03:05.798Z,2.50
2024-04-30T05:05:32.962Z,2.55
2024-04-30T05:08:00.171Z,2.30
2024-04-30T05:10:27.468Z,2.53
2024-04-30T05:12:54.580Z,2.75
2024-04-30T05:15:21.628Z,2.45
2024-04-30T05:17:49.116Z,2.65
2024-04-30T05:20:16.349Z,2.45
2024-04-30T05:22:43.714Z,2.50
2024-04-30T05:25:10.965Z,3.72
2024-04-30T05:27:38.201Z,2.50
2024-04-30T05:30:06.209Z,2.38
2024-04-30T05:32:33.542Z,2.40
2024-04-30T05:35:00.871Z,2.70
2024-04-30T05:37:28.370Z,2.72
2024-04-30T05:39:55.434Z,2.65
2024-04-30T05:42:22.502Z,2.70
2024-04-30T05:44:49.760Z,3.13
2024-04-30T05:47:17.160Z,2.45
2024-04-30T05:49:44.301Z,2.75
2024-04-30T05:52:11.453Z,2.80
2024-04-30T05:54:38.624Z,2.80
2024-04-30T05:57:05.976Z,3.35
2024-04-30T05:59:33.086Z,3.22
2024-04-30T06:02:00.367Z,3.47
2024-04-30T06:04:27.785Z,3.10
2024-04-30T06:06:55.019Z,3.53
2024-04-30T06:09:22.386Z,3.80
2024-04-30T06:11:49.632Z,3.55
2024-04-30T06:14:18.222Z,3.30
2024-04-30T06:16:46.108Z,3.35
2024-04-30T06:19:13.307Z,3.42
2024-04-30T06:21:41.773Z,3.40
2024-04-30T06:24:10.183Z,3.90
2024-04-30T06:26:46.233Z,3.80
2024-04-30T06:31:41.170Z,3.72
2024-04-30T06:34:08.441Z,3.67
2024-04-30T06:36:35.673Z,3.63
2024-04-30T06:39:02.875Z,3.55
2024-04-30T06:41:29.974Z,3.20
2024-04-30T06:43:57.128Z,3.83
2024-04-30T06:46:24.263Z,3.60
2024-04-30T06:48:51.365Z,3.22
2024-04-30T06:51:19.174Z,3.25
2024-04-30T06:53:46.375Z,3.08
2024-04-30T06:56:13.597Z,3.50
2024-04-30T06:58:40.777Z,3.10
2024-04-30T07:01:08.180Z,3.20
2024-04-30T07:03:35.554Z,2.95
2024-04-30T07:06:02.768Z,3.22
2024-04-30T07:08:29.933Z,3.47
2024-04-30T07:10:59.804Z,2.60
2024-04-30T07:13:29.247Z,2.50
2024-04-30T07:15:56.659Z,2.67
2024-04-30T07:18:24.231Z,2.92
2024-04-30T07:20:51.400Z,2.45
2024-04-30T07:23:18.559Z,2.88
2024-04-30T07:25:45.690Z,2.70
2024-04-30T07:28:12.978Z,2.63
2024-04-30T07:30:40.256Z,2.38
2024-04-30T07:33:07.537Z,2.67
2024-04-30T07:35:34.697Z,2.42
2024-04-30T07:38:01.845Z,2.30
2024-04-30T07:40:29.116Z,2.13
2024-04-30T07:42:56.896Z,2.42
2024-04-30T07:45:25.032Z,2.53
2024-04-30T07:47:52.549Z,2.22
2024-04-30T07:50:20.379Z,2.00
2024-04-30T07:52:47.515Z,2.10
2024-04-30T07:55:14.800Z,2.30
2024-04-30T07:57:41.928Z,2.00
2024-04-30T08:00:12.420Z,2.17
2024-04-30T08:02:42.871Z,2.30
2024-04-30T08:05:09.991Z,2.20
2024-04-30T08:07:37.397Z,2.10
2024-04-30T08:10:05.089Z,2.10
2024-04-30T08:12:32.283Z,2.33
2024-04-30T08:15:00.194Z,2.00
2024-04-30T08:17:27.939Z,2.05
2024-04-30T08:19:55.224Z,2.30
2024-04-30T08:22:22.398Z,2.13
2024-04-30T08:24:49.548Z,2.00
2024-04-30T08:27:16.758Z,1.73
2024-04-30T08:29:43.786Z,1.83
2024-04-30T08:32:11.144Z,1.90
2024-04-30T08:34:38.391Z,1.50
2024-04-30T08:37:05.718Z,1.58
2024-04-30T08:39:32.754Z,1.40
2024-04-30T08:42:01.312Z,1.80
2024-04-30T08:44:29.783Z,1.10
2024-04-30T08:46:57.363Z,0.88
2024-04-30T08:49:33.789Z,1.23
2024-04-30T08:52:09.858Z,1.08
2024-04-30T08:54:38.046Z,0.90
2024-04-30T08:57:05.745Z,0.95
2024-04-30T08:59:33.206Z,1.00
2024-04-30T09:02:02.050Z,2.05
2024-04-30T09:04:30.780Z,1.05
2024-04-30T09:06:58.195Z,0.93
2024-04-30T09:09:25.461Z,0.98
2024-04-30T09:11:53.058Z,1.00
2024-04-30T09:14:20.219Z,1.33
2024-04-30T09:16:51.785Z,1.45
2024-04-30T09:19:29.132Z,0.80
2024-04-30T09:22:07.377Z,0.95
2024-04-30T09:24:34.950Z,1.30
2024-04-30T09:27:02.100Z,1.38
2024-04-30T09:29:38.405Z,0.90
2024-04-30T09:32:06.830Z,3.05
2024-04-30T09:34:43.662Z,1.10
2024-04-30T09:37:21.224Z,1.27
2024-04-30T09:39:58.617Z,1.20
2024-04-30T09:42:28.593Z,1.15
2024-04-30T09:44:57.376Z,1.30
2024-04-30T09:47:26.782Z,1.10
2024-04-30T09:49:56.472Z,1.20
2024-04-30T09:52:25.719Z,1.17
2024-04-30T09:54:56.099Z,1.40
2024-04-30T09:57:25.020Z,1.20
2024-04-30T09:59:52.128Z,1.15
2024-04-30T10:02:21.293Z,1.23
2024-04-30T10:04:51.125Z,1.35
2024-04-30T10:07:21.004Z,1.20
2024-04-30T10:09:57.314Z,1.23
2024-04-30T10:12:28.791Z,1.42
2024-04-30T10:14:58.113Z,1.35
2024-04-30T10:17:25.234Z,1.33
2024-04-30T10:19:52.351Z,1.27
2024-04-30T10:22:20.285Z,1.40
2024-04-30T10:24:47.624Z,1.00
2024-04-30T10:27:22.057Z,1.30
2024-04-30T10:29:50.345Z,1.00
2024-04-30T10:32:17.496Z,1.23
2024-04-30T10:35:13.826Z,1.00
2024-04-30T10:37:42.138Z,1.00
2024-04-30T10:40:13.234Z,0.82
2024-04-30T10:42:40.694Z,1.10
2024-04-30T10:45:08.356Z,1.20
2024-04-30T10:47:36.986Z,0.88
2024-04-30T10:50:16.282Z,0.80
2024-04-30T10:52:47.037Z,0.98
2024-04-30T10:55:15.160Z,0.90
2024-04-30T10:57:44.480Z,0.80
2024-04-30T11:00:13.035Z,1.00
2024-04-30T11:02:42.239Z,0.88
2024-04-30T11:05:13.618Z,1.10
2024-04-30T11:07:41.110Z,0.90
2024-04-30T11:10:08.814Z,1.13
2024-04-30T11:12:36.731Z,0.70
2024-04-30T11:15:06.574Z,1.00
2024-04-30T11:17:33.992Z,0.93
2024-04-30T11:20:02.260Z,0.68
2024-04-30T11:22:29.768Z,1.20
2024-04-30T11:24:57.193Z,0.90
2024-04-30T11:27:24.455Z,1.23
2024-04-30T11:29:51.503Z,0.88
2024-04-30T11:32:18.713Z,1.30
2024-04-30T11:34:49.672Z,1.08
2024-04-30T11:37:17.053Z,0.93
2024-04-30T11:39:44.408Z,1.20
2024-04-30T11:42:20.322Z,1.17
2024-04-30T11:44:51.844Z,0.90
2024-04-30T11:47:19.182Z,1.00
2024-04-30T11:49:46.503Z,0.98
2024-04-30T11:52:13.638Z,0.90
2024-04-30T11:54:40.902Z,0.90
2024-04-30T11:57:08.110Z,0.90
2024-04-30T11:59:36.421Z,0.70
2024-04-30T12:02:03.907Z,0.90
2024-04-30T12:04:31.155Z,0.80
2024-04-30T12:06:58.367Z,0.80
2024-04-30T12:09:25.582Z,1.00
2024-04-30T12:11:52.696Z,0.80
2024-04-30T12:14:19.934Z,0.95
2024-04-30T12:16:48.260Z,1.45
2024-04-30T12:19:16.227Z,1.20
2024-04-30T12:21:44.767Z,1.00
2024-04-30T12:24:12.194Z,0.88
2024-04-30T12:26:39.435Z,0.90
2024-04-30T12:29:06.497Z,0.90
2024-04-30T12:31:33.908Z,1.20
2024-04-30T12:34:01.239Z,0.98
2024-04-30T12:36:30.115Z,0.80
2024-04-30T12:38:57.511Z,0.80
2024-04-30T12:41:24.633Z,0.75
2024-04-30T12:43:51.771Z,0.80
2024-04-30T12:46:19.729Z,1.00
2024-04-30T12:48:47.054Z,0.90
2024-04-30T12:51:17.032Z,1.10
2024-04-30T12:53:44.243Z,0.85
2024-04-30T12:56:15.083Z,1.20
2024-04-30T12:58:42.367Z,0.65
2024-04-30T13:01:09.624Z,1.08
2024-04-30T13:03:39.649Z,1.20
2024-04-30T13:06:07.353Z,1.17
2024-04-30T13:08:34.558Z,0.90
2024-04-30T13:11:02.062Z,1.30
2024-04-30T13:13:29.508Z,0.85
2024-04-30T13:15:56.780Z,1.17
2024-04-30T13:18:24.000Z,1.00
2024-04-30T13:20:51.453Z,1.02
2024-04-30T13:23:18.709Z,1.23
2024-04-30T13:25:45.955Z,1.30
2024-04-30T13:28:13.843Z,1.38
2024-04-30T13:30:41.098Z,1.13
2024-04-30T13:33:10.204Z,1.30
2024-04-30T13:35:37.893Z,1.17
2024-04-30T13:38:05.333Z,1.27
2024-04-30T13:40:34.222Z,1.52
2024-04-30T13:43:01.578Z,1.20
2024-04-30T13:45:28.661Z,1.45
2024-04-30T13:47:55.906Z,1.20
2024-04-30T13:50:23.054Z,1.60
2024-04-30T13:52:50.186Z,1.13
2024-04-30T13:55:17.436Z,1.10
2024-04-30T13:57:44.668Z,1.13
2024-04-30T14:00:12.425Z,1.10
2024-04-30T14:02:39.796Z,1.08
2024-04-30T14:05:07.474Z,1.27
2024-04-30T14:07:34.647Z,1.20
2024-04-30T14:10:01.869Z,1.33
2024-04-30T14:12:28.934Z,1.00
2024-04-30T14:14:55.997Z,1.10
2024-04-30T14:17:23.654Z,1.25
2024-04-30T14:19:51.052Z,1.15
2024-04-30T14:22:18.335Z,1.63
2024-04-30T14:24:45.558Z,1.60
2024-04-30T14:27:12.733Z,1.10
2024-04-30T14:29:39.853Z,1.60
2024-04-30T14:32:07.370Z,1.35
2024-04-30T14:34:34.750Z,1.25
2024-04-30T14:37:01.982Z,0.90
2024-04-30T14:39:29.169Z,1.13
2024-04-30T14:41:58.671Z,1.20
2024-04-30T14:44:27.338Z,1.00
2024-04-30T14:46:54.718Z,1.50
2024-04-30T14:49:21.985Z,1.30
2024-04-30T14:51:49.246Z,1.15
2024-04-30T14:54:16.292Z,1.35
2024-04-30T14:56:44.394Z,1.30
2024-04-30T14:59:11.577Z,1.10
2024-04-30T15:01:44.965Z,1.27
2024-04-30T15:04:12.330Z,0.95
2024-04-30T15:06:39.507Z,1.52
2024-04-30T15:09:10.151Z,1.38
2024-04-30T15:11:37.516Z,1.33
2024-04-30T15:14:05.478Z,1.42
2024-04-30T15:16:32.849Z,1.55
2024-04-30T15:19:00.086Z,1.30
2024-04-30T15:21:27.246Z,1.20
2024-04-30T15:23:54.325Z,1.35
2024-04-30T15:26:21.710Z,2.58
2024-04-30T15:28:48.936Z,1.73
2024-04-30T15:31:21.032Z,1.30
2024-04-30T15:33:48.680Z,1.65
2024-04-30T15:36:16.468Z,1.63
2024-04-30T15:38:46.080Z,1.55
2024-04-30T15:41:23.881Z,1.58
2024-04-30T15:43:51.747Z,1.40
2024-04-30T15:46:19.591Z,1.70
2024-04-30T15:48:50.495Z,1.30
2024-04-30T15:51:17.933Z,1.42
2024-04-30T15:53:45.382Z,1.73
2024-04-30T15:56:17.934Z,1.48
2024-04-30T15:58:47.655Z,1.42
2024-04-30T16:01:16.188Z,1.30
2024-04-30T16:03:43.738Z,1.52
2024-04-30T16:06:11.859Z,1.50
2024-04-30T16:08:39.291Z,1.23
2024-04-30T16:11:10.238Z,1.10
2024-04-30T16:13:39.518Z,1.10
2024-04-30T16:16:15.676Z,1.13
2024-04-30T16:18:46.317Z,1.50
2024-04-30T16:21:14.160Z,1.35
2024-04-30T16:23:44.224Z,1.20
2024-04-30T16:26:11.621Z,1.30
2024-04-30T16:28:43.690Z,1.60
2024-04-30T16:31:11.686Z,1.60
2024-04-30T16:33:39.231Z,1.52
2024-04-30T16:36:07.684Z,3.15
2024-04-30T16:38:34.970Z,1.65
2024-04-30T16:41:03.683Z,1.70
2024-04-30T16:43:30.940Z,1.60
2024-04-30T16:45:58.159Z,1.40
2024-04-30T16:48:26.279Z,1.83
2024-04-30T16:50:53.445Z,1.80
2024-04-30T16:53:20.618Z,1.48
2024-04-30T16:55:47.870Z,1.40
2024-04-30T16:58:15.083Z,1.55
2024-04-30T17:00:42.743Z,1.27
2024-04-30T17:03:11.838Z,1.60
2024-04-30T17:05:39.268Z,1.50
2024-04-30T17:08:06.794Z,1.50
2024-04-30T17:10:34.209Z,1.40
2024-04-30T17:13:01.538Z,1.52
2024-04-30T17:15:28.910Z,1.55
2024-04-30T17:17:56.634Z,1.60
2024-04-30T17:20:24.037Z,1.40
2024-04-30T17:22:51.171Z,1.60
2024-04-30T17:25:18.544Z,1.60
2024-04-30T17:27:45.751Z,1.52
2024-04-30T17:30:14.322Z,1.67
2024-04-30T17:32:41.941Z,1.80
2024-04-30T17:35:11.932Z,1.77
2024-04-30T17:37:39.178Z,1.55
2024-04-30T17:40:07.024Z,1.88
2024-04-30T17:42:34.706Z,1.77
2024-04-30T17:45:03.143Z,1.98
2024-04-30T17:47:30.364Z,1.75
2024-04-30T17:49:57.686Z,1.77
2024-04-30T17:52:24.932Z,2.55
2024-04-30T17:54:52.235Z,4.03
2024-04-30T17:57:19.479Z,4.00
2024-04-30T17:59:46.748Z,4.47
2024-04-30T18:02:14.161Z,4.70
2024-04-30T18:04:42.596Z,4.15
2024-04-30T18:07:09.746Z,4.22
2024-04-30T18:09:38.874Z,4.60
2024-04-30T18:12:06.367Z,4.80
2024-04-30T18:14:33.650Z,4.40
2024-04-30T18:17:03.218Z,3.78
2024-04-30T18:19:31.725Z,4.07
2024-04-30T18:21:59.082Z,4.05
2024-04-30T18:24:26.600Z,4.47
2024-04-30T18:26:53.841Z,4.13
2024-04-30T18:29:21.104Z,3.75
2024-04-30T18:31:52.822Z,4.25
2024-04-30T18:34:20.445Z,4.47
2024-04-30T18:36:47.800Z,4.13
2024-04-30T18:39:16.437Z,4.28
2024-04-30T18:41:44.209Z,4.40
2024-04-30T18:44:12.214Z,4.65
2024-04-30T18:46:40.430Z,4.68
2024-04-30T18:49:08.135Z,4.43
2024-04-30T18:51:41.329Z,4.97
2024-04-30T18:54:09.314Z,4.55
2024-04-30T18:56:40.702Z,5.20
2024-04-30T18:59:08.040Z,5.07
2024-04-30T19:01:35.549Z,5.82
2024-04-30T19:04:03.836Z,4.97
2024-04-30T19:06:31.273Z,5.10
2024-04-30T19:08:58.830Z,4.90
2024-04-30T19:11:26.081Z,4.88
2024-04-30T19:13:53.227Z,5.63
2024-04-30T19:16:20.563Z,5.70
2024-04-30T19:18:48.303Z,5.82
2024-04-30T19:21:15.576Z,6.38
2024-04-30T19:23:42.543Z,5.40
2024-04-30T19:26:15.111Z,5.90
2024-04-30T19:28:42.261Z,5.43
2024-04-30T19:31:20.992Z,5.72
2024-04-30T19:33:49.191Z,5.90
2024-04-30T19:36:21.596Z,5.97
2024-04-30T19:38:49.622Z,5.60
2024-04-30T19:41:17.746Z,5.18
2024-04-30T19:43:44.902Z,6.50
2024-04-30T19:46:21.698Z,5.45
2024-04-30T19:48:52.446Z,5.55
2024-04-30T19:51:23.699Z,6.00
2024-04-30T19:53:53.106Z,5.40
2024-04-30T19:56:21.260Z,5.22
2024-04-30T19:58:57.409Z,6.05
2024-04-30T20:01:29.179Z,5.82
2024-04-30T20:04:01.244Z,5.72
2024-04-30T20:06:28.868Z,5.60
2024-04-30T20:08:56.220Z,5.40
2024-04-30T20:11:25.561Z,4.93
2024-04-30T20:13:53.713Z,5.50
2024-04-30T20:16:21.105Z,5.80
2024-04-30T20:18:49.686Z,5.05
2024-04-30T20:21:17.404Z,4.97
2024-04-30T20:23:44.715Z,4.82
2024-04-30T20:26:12.837Z,5.07
2024-04-30T20:28:40.039Z,4.97
2024-04-30T20:31:07.844Z,5.40
2024-04-30T20:33:35.295Z,5.20
2024-04-30T20:36:02.537Z,5.35
2024-04-30T20:38:30.508Z,5.05
2024-04-30T20:40:57.711Z,5.00
2024-04-30T20:43:25.248Z,7.30
2024-04-30T20:45:52.503Z,4.90
2024-04-30T20:48:19.910Z,5.47
2024-04-30T20:50:47.155Z,5.50
2024-04-30T20:53:14.356Z,5.45
2024-04-30T20:55:44.912Z,5.20
2024-04-30T20:58:12.832Z,5.38
2024-04-30T21:00:40.216Z,5.43
2024-04-30T21:03:07.537Z,5.07
2024-04-30T21:05:34.852Z,4.80
2024-04-30T21:08:02.234Z,6.10
2024-04-30T21:10:29.416Z,5.68
2024-04-30T21:13:00.081Z,4.65
2024-04-30T21:15:27.289Z,5.03
2024-04-30T21:17:54.659Z,4.57
2024-04-30T21:20:21.823Z,5.50
2024-04-30T21:22:48.872Z,5.15
2024-04-30T21:25:16.185Z,5.60
2024-04-30T21:27:43.363Z,5.32
2024-04-30T21:30:10.877Z,5.60
2024-04-30T21:32:38.282Z,5.82
2024-04-30T21:35:13.232Z,6.30
2024-04-30T21:37:41.372Z,6.40
2024-04-30T21:40:09.896Z,5.82
2024-04-30T21:42:38.218Z,6.57
2024-04-30T21:45:05.812Z,5.97
2024-04-30T21:47:33.008Z,5.95
2024-04-30T21:50:00.219Z,6.10
2024-04-30T21:52:27.622Z,6.07
2024-04-30T21:54:54.900Z,6.47
2024-04-30T21:57:22.192Z,6.28
2024-04-30T21:59:49.362Z,6.30
2024-04-30T22:02:16.568Z,6.95
2024-04-30T22:04:46.274Z,6.15
2024-04-30T22:07:21.343Z,5.97
2024-04-30T22:09:48.820Z,7.45
2024-04-30T22:12:15.982Z,6.90
2024-04-30T22:14:43.189Z,7.07
2024-04-30T22:17:10.309Z,6.70
2024-04-30T22:19:37.792Z,8.07
2024-04-30T22:22:05.342Z,6.90
2024-04-30T22:24:32.618Z,7.47
2024-04-30T22:26:59.808Z,7.18
2024-04-30T22:29:27.199Z,7.30
2024-04-30T22:31:54.121Z,7.18
2024-04-30T22:34:21.416Z,5.30
2024-04-30T22:36:48.527Z,4.40
2024-04-30T22:39:15.653Z,4.18
2024-04-30T22:41:42.926Z,3.97
2024-04-30T22:44:10.144Z,3.92
2024-04-30T22:46:37.286Z,3.63
2024-04-30T22:49:04.574Z,3.00
2024-04-30T22:51:32.227Z,3.70
2024-04-30T22:53:59.411Z,3.33
2024-04-30T22:56:26.912Z,3.75
2024-04-30T22:58:54.594Z,3.22
2024-04-30T23:01:21.825Z,3.15
2024-04-30T23:03:49.015Z,3.45
2024-04-30T23:06:16.270Z,3.40
2024-04-30T23:08:43.421Z,3.65
2024-04-30T23:11:10.673Z,3.83
2024-04-30T23:13:38.090Z,3.10
2024-04-30T23:16:05.669Z,3.58
2024-04-30T23:18:33.300Z,3.45
2024-04-30T23:21:00.638Z,4.15
2024-04-30T23:23:27.934Z,3.22
2024-04-30T23:25:55.248Z,3.55
2024-04-30T23:28:22.525Z,3.85
2024-04-30T23:30:49.904Z,3.67
2024-04-30T23:33:17.015Z,3.75
2024-04-30T23:35:44.287Z,3.70
2024-04-30T23:38:11.654Z,3.40
2024-04-30T23:40:38.852Z,3.65
2024-04-30T23:43:06.322Z,3.53
2024-04-30T23:45:33.628Z,3.80
2024-04-30T23:48:00.867Z,3.60
2024-04-30T23:50:27.931Z,3.72
2024-04-30T23:52:55.396Z,3.63
2024-04-30T23:55:22.529Z,3.47
2024-04-30T23:57:49.818Z,3.83
